Time,TemperatureF,DewpointF,PressureIn,WindDirection,WindDirectionDegrees,WindSpeedMPH,WindSpeedGustMPH,Humidity,HourlyPrecipIn,Conditions,Clouds,dailyrainin,SoftwareType,DateUTC
2013-04-27 00:01:00,42.3,28.0,30.55,WNW,293,0.0,1.0,57,0.00,,,0.00,weatherlink.com 1.10,2013-04-27 04:01:00,
2013-04-27 00:16:00,42.3,29.0,30.55,WNW,293,0.0,1.0,60,0.00,,,0.00,weatherlink.com 1.10,2013-04-27 04:16:00,
2013-04-27 00:31:00,42.0,28.0,30.56,WNW,293,0.0,1.0,57,0.00,,,0.00,weatherlink.com 1.10,2013-04-27 04:31:00,
2013-04-27 00:46:00,41.6,29.0,30.55,WNW,293,0.0,2.0,61,0.00,,,0.00,weatherlink.com 1.10,2013-04-27 04:46:00,
2013-04-27 01:01:00,41.2,29.0,30.56,WNW,293,0.0,0.0,61,0.00,,,0.00,weatherlink.com 1.10,2013-04-27 05:01:00,
2013-04-27 01:16:00,40.8,28.0,30.55,WNW,293,0.0,0.0,60,0.00,,,0.00,weatherlink.com 1.10,2013-04-27 05:16:00,
2013-04-27 01:31:00,40.8,28.0,30.55,WNW,293,0.0,0.0,61,0.00,,,0.00,weatherlink.com 1.10,2013-04-27 05:31:00,
2013-04-27 01:46:00,40.9,28.0,30.55,WNW,293,0.0,1.0,61,0.00,,,0.00,weatherlink.com 1.10,2013-04-27 05:46:00,
2013-04-27 02:01:00,40.8,28.0,30.55,WNW,293,0.0,1.0,60,0.00,,,0.00,weatherlink.com 1.10,2013-04-27 06:01:00,
2013-04-27 02:17:00,40.1,29.0,30.55,WNW,293,0.0,1.0,64,0.00,,,0.00,weatherlink.com 1.10,2013-04-27 06:17:00,
2013-04-27 02:32:00,39.6,28.0,30.54,WNW,293,0.0,0.0,63,0.00,,,0.00,weatherlink.com 1.10,2013-04-27 06:32:00,
2013-04-27 02:47:00,39.5,28.0,30.54,WNW,293,0.0,1.0,63,0.00,,,0.00,weatherlink.com 1.10,2013-04-27 06:47:00,
2013-04-27 03:02:00,40.0,28.0,30.54,WNW,293,0.0,0.0,63,0.00,,,0.00,weatherlink.com 1.10,2013-04-27 07:02:00,
2013-04-27 03:17:00,40.1,28.0,30.54,WNW,293,0.0,1.0,62,0.00,,,0.00,weatherlink.com 1.10,2013-04-27 07:17:00,
2013-04-27 03:32:00,40.2,29.0,30.54,WNW,293,0.0,1.0,65,0.00,,,0.00,weatherlink.com 1.10,2013-04-27 07:32:00,
2013-04-27 03:47:00,39.7,30.0,30.53,WNW,293,0.0,1.0,69,0.00,,,0.00,weatherlink.com 1.10,2013-04-27 07:47:00,
2013-04-27 04:02:00,39.5,30.0,30.53,WNW,293,0.0,0.0,68,0.00,,,0.00,weatherlink.com 1.10,2013-04-27 08:02:00,
2013-04-27 04:17:00,39.6,30.0,30.53,WNW,293,0.0,1.0,69,0.00,,,0.00,weatherlink.com 1.10,2013-04-27 08:17:00,
2013-04-27 04:32:00,39.7,31.0,30.53,WNW,293,1.0,1.0,70,0.00,,,0.00,weatherlink.com 1.10,2013-04-27 08:32:00,
2013-04-27 04:47:00,39.5,30.0,30.53,WNW,293,0.0,0.0,70,0.00,,,0.00,weatherlink.com 1.10,2013-04-27 08:47:00,
2013-04-27 05:02:00,39.5,31.0,30.53,WNW,293,0.0,0.0,72,0.00,,,0.00,weatherlink.com 1.10,2013-04-27 09:02:00,
2013-04-27 05:17:00,39.6,31.0,30.53,WNW,293,0.0,1.0,71,0.00,,,0.00,weatherlink.com 1.10,2013-04-27 09:17:00,
2013-04-27 05:32:00,39.6,31.0,30.53,WNW,293,0.0,0.0,71,0.00,,,0.00,weatherlink.com 1.10,2013-04-27 09:32:00,
2013-04-27 05:47:00,39.4,31.0,30.53,WNW,293,0.0,1.0,71,0.00,,,0.00,weatherlink.com 1.10,2013-04-27 09:47:00,
2013-04-27 06:02:00,38.9,31.0,30.54,WNW,293,0.0,2.0,73,0.00,,,0.00,weatherlink.com 1.10,2013-04-27 10:02:00,
2013-04-27 06:17:00,38.8,31.0,30.54,WNW,293,0.0,1.0,73,0.00,,,0.00,weatherlink.com 1.10,2013-04-27 10:17:00,
2013-04-27 06:32:00,40.3,31.0,30.55,WNW,293,0.0,1.0,70,0.00,,,0.00,weatherlink.com 1.10,2013-04-27 10:32:00,
2013-04-27 06:47:00,41.5,32.0,30.54,ESE,117,0.0,3.0,70,0.00,,,0.00,weatherlink.com 1.10,2013-04-27 10:47:00,
2013-04-27 07:02:00,43.0,33.0,30.54,ESE,117,0.0,2.0,69,0.00,,,0.00,weatherlink.com 1.10,2013-04-27 11:02:00,
2013-04-27 07:17:00,43.7,33.0,30.55,SE,130,0.0,3.0,67,0.00,,,0.00,weatherlink.com 1.10,2013-04-27 11:17:00,
2013-04-27 07:32:00,44.0,33.0,30.54,SE,132,1.0,4.0,66,0.00,,,0.00,weatherlink.com 1.10,2013-04-27 11:32:00,
2013-04-27 07:47:00,45.0,33.0,30.55,ESE,103,2.0,7.0,64,0.00,,,0.00,weatherlink.com 1.10,2013-04-27 11:47:00,
2013-04-27 08:02:00,46.0,35.0,30.55,NE,41,3.0,8.0,65,0.00,,,0.00,weatherlink.com 1.10,2013-04-27 12:02:00,
2013-04-27 08:17:00,47.4,34.0,30.55,East,101,2.0,8.0,61,0.00,,,0.00,weatherlink.com 1.10,2013-04-27 12:17:00,
2013-04-27 08:32:00,48.3,36.0,30.55,SE,137,5.0,11.0,62,0.00,,,0.00,weatherlink.com 1.10,2013-04-27 12:32:00,
2013-04-27 08:47:00,49.0,35.0,30.55,SSW,193,3.0,5.0,60,0.00,,,0.00,weatherlink.com 1.10,2013-04-27 12:47:00,
2013-04-27 09:02:00,49.6,35.0,30.54,NW,314,3.0,8.0,58,0.00,,,0.00,weatherlink.com 1.10,2013-04-27 13:02:00,
2013-04-27 09:17:00,51.0,36.0,30.54,SE,145,5.0,5.0,57,0.00,,,0.00,weatherlink.com 1.10,2013-04-27 13:17:00,
2013-04-27 09:33:00,51.0,35.0,30.54,SE,128,4.0,8.0,55,0.00,,,0.00,weatherlink.com 1.10,2013-04-27 13:33:00,
2013-04-27 10:03:00,51.4,35.0,30.54,SSE,154,3.0,10.0,53,0.00,,,0.00,weatherlink.com 1.10,2013-04-27 14:03:00,
2013-04-27 10:18:00,51.7,34.0,30.54,ESE,119,0.0,9.0,51,0.00,,,0.00,weatherlink.com 1.10,2013-04-27 14:18:00,
2013-04-27 10:33:00,52.6,37.0,30.54,ESE,110,2.0,9.0,56,0.00,,,0.00,weatherlink.com 1.10,2013-04-27 14:33:00,
2013-04-27 10:48:00,52.5,36.0,30.54,SE,126,3.0,8.0,54,0.00,,,0.00,weatherlink.com 1.10,2013-04-27 14:48:00,
2013-04-27 11:03:00,52.9,36.0,30.54,SE,127,4.0,8.0,54,0.00,,,0.00,weatherlink.com 1.10,2013-04-27 15:03:00,
2013-04-27 11:18:00,53.8,36.0,30.54,SE,126,4.0,5.0,52,0.00,,,0.00,weatherlink.com 1.10,2013-04-27 15:18:00,
2013-04-27 11:33:00,54.5,35.0,30.53,SSE,163,4.0,6.0,49,0.00,,,0.00,weatherlink.com 1.10,2013-04-27 15:33:00,
2013-04-27 11:48:00,55.0,33.0,30.53,ESE,102,3.0,9.0,43,0.00,,,0.00,weatherlink.com 1.10,2013-04-27 15:48:00,
2013-04-27 12:03:00,55.2,33.0,30.52,SSE,167,4.0,9.0,43,0.00,,,0.00,weatherlink.com 1.10,2013-04-27 16:03:00,
2013-04-27 12:18:00,56.0,34.0,30.52,East,98,6.0,15.0,43,0.00,,,0.00,weatherlink.com 1.10,2013-04-27 16:18:00,
2013-04-27 12:33:00,56.3,34.0,30.51,SSE,164,6.0,9.0,44,0.00,,,0.00,weatherlink.com 1.10,2013-04-27 16:33:00,
2013-04-27 12:48:00,57.2,34.0,30.50,SE,124,2.0,11.0,42,0.00,,,0.00,weatherlink.com 1.10,2013-04-27 16:48:00,
2013-04-27 13:03:00,57.7,33.0,30.49,ESE,123,0.0,11.0,39,0.00,,,0.00,weatherlink.com 1.10,2013-04-27 17:03:00,
2013-04-27 13:18:00,58.0,33.0,30.49,SE,136,3.0,6.0,39,0.00,,,0.00,weatherlink.com 1.10,2013-04-27 17:18:00,
2013-04-27 13:33:00,59.2,34.0,30.48,ESE,107,4.0,6.0,39,0.00,,,0.00,weatherlink.com 1.10,2013-04-27 17:33:00,
2013-04-27 13:48:00,59.7,33.0,30.47,SE,133,4.0,10.0,37,0.00,,,0.00,weatherlink.com 1.10,2013-04-27 17:48:00,
2013-04-27 14:03:00,59.3,33.0,30.47,South,190,2.0,7.0,38,0.00,,,0.00,weatherlink.com 1.10,2013-04-27 18:03:00,
2013-04-27 14:18:00,60.5,33.0,30.47,West,265,2.0,7.0,36,0.00,,,0.00,weatherlink.com 1.10,2013-04-27 18:18:00,
2013-04-27 14:33:00,60.0,34.0,30.46,SE,138,3.0,8.0,38,0.00,,,0.00,weatherlink.com 1.10,2013-04-27 18:33:00,
2013-04-27 14:48:00,59.5,33.0,30.45,ESE,111,5.0,9.0,37,0.00,,,0.00,weatherlink.com 1.10,2013-04-27 18:48:00,
2013-04-27 15:03:00,59.9,33.0,30.45,SSE,165,6.0,9.0,37,0.00,,,0.00,weatherlink.com 1.10,2013-04-27 19:03:00,
2013-04-27 15:18:00,59.7,34.0,30.44,SE,136,4.0,10.0,39,0.00,,,0.00,weatherlink.com 1.10,2013-04-27 19:18:00,
2013-04-27 15:33:00,58.7,32.0,30.43,ESE,117,3.0,18.0,37,0.00,,,0.00,weatherlink.com 1.10,2013-04-27 19:33:00,
2013-04-27 15:48:00,60.3,31.0,30.42,East,96,5.0,12.0,33,0.00,,,0.00,weatherlink.com 1.10,2013-04-27 19:48:00,
2013-04-27 16:03:00,60.1,32.0,30.41,SSE,157,3.0,9.0,35,0.00,,,0.00,weatherlink.com 1.10,2013-04-27 20:03:00,
2013-04-27 16:18:00,60.6,33.0,30.41,ESE,110,2.0,8.0,35,0.00,,,0.00,weatherlink.com 1.10,2013-04-27 20:18:00,
2013-04-27 16:33:00,60.9,33.0,30.41,SSE,150,5.0,7.0,35,0.00,,,0.00,weatherlink.com 1.10,2013-04-27 20:33:00,
2013-04-27 16:48:00,61.2,33.0,30.41,SW,224,2.0,6.0,35,0.00,,,0.00,weatherlink.com 1.10,2013-04-27 20:48:00,
2013-04-27 17:04:00,60.7,31.0,30.41,SE,142,3.0,6.0,33,0.00,,,0.00,weatherlink.com 1.10,2013-04-27 21:04:00,
2013-04-27 17:19:00,60.2,32.0,30.40,South,170,1.0,2.0,34,0.00,,,0.00,weatherlink.com 1.10,2013-04-27 21:19:00,
2013-04-27 17:34:00,60.0,34.0,30.41,SW,218,2.0,3.0,38,0.00,,,0.00,weatherlink.com 1.10,2013-04-27 21:34:00,
2013-04-27 17:49:00,59.6,33.0,30.41,SW,221,2.0,3.0,37,0.00,,,0.00,weatherlink.com 1.10,2013-04-27 21:49:00,
2013-04-27 18:04:00,59.3,32.0,30.41,SW,221,1.0,3.0,36,0.00,,,0.00,weatherlink.com 1.10,2013-04-27 22:04:00,
2013-04-27 18:19:00,59.2,31.0,30.41,SW,221,0.0,3.0,35,0.00,,,0.00,weatherlink.com 1.10,2013-04-27 22:19:00,
2013-04-27 18:34:00,59.1,34.0,30.41,SW,221,0.0,0.0,39,0.00,,,0.00,weatherlink.com 1.10,2013-04-27 22:34:00,
2013-04-27 18:49:00,58.5,34.0,30.41,West,273,0.0,3.0,40,0.00,,,0.00,weatherlink.com 1.10,2013-04-27 22:49:00,
2013-04-27 19:04:00,58.5,27.0,30.42,NW,311,5.0,6.0,30,0.00,,,0.00,weatherlink.com 1.10,2013-04-27 23:04:00,
2013-04-27 19:19:00,58.4,27.0,30.42,NNW,336,1.0,7.0,30,0.00,,,0.00,weatherlink.com 1.10,2013-04-27 23:19:00,
2013-04-27 19:34:00,58.0,26.0,30.42,NW,325,3.0,5.0,29,0.00,,,0.00,weatherlink.com 1.10,2013-04-27 23:34:00,
2013-04-27 19:49:00,57.5,26.0,30.41,NNW,332,1.0,3.0,30,0.00,,,0.00,weatherlink.com 1.10,2013-04-27 23:49:00,
2013-04-27 20:04:00,56.5,28.0,30.41,NNW,339,2.0,3.0,33,0.00,,,0.00,weatherlink.com 1.10,2013-04-28 00:04:00,
2013-04-27 20:19:00,56.0,27.0,30.41,NW,310,1.0,3.0,33,0.00,,,0.00,weatherlink.com 1.10,2013-04-28 00:19:00,
2013-04-27 20:34:00,55.4,27.0,30.41,NW,310,0.0,2.0,34,0.00,,,0.00,weatherlink.com 1.10,2013-04-28 00:34:00,
2013-04-27 20:49:00,54.9,25.0,30.41,NW,310,0.0,1.0,32,0.00,,,0.00,weatherlink.com 1.10,2013-04-28 00:49:00,
2013-04-27 21:04:00,54.2,33.0,30.42,NW,310,0.0,1.0,45,0.00,,,0.00,weatherlink.com 1.10,2013-04-28 01:04:00,
2013-04-27 21:19:00,52.8,28.0,30.42,NW,310,0.0,2.0,39,0.00,,,0.00,weatherlink.com 1.10,2013-04-28 01:19:00,
2013-04-27 21:34:00,51.9,29.0,30.43,NW,310,0.0,1.0,41,0.00,,,0.00,weatherlink.com 1.10,2013-04-28 01:34:00,
2013-04-27 21:49:00,51.3,29.0,30.44,NW,310,1.0,2.0,43,0.00,,,0.00,weatherlink.com 1.10,2013-04-28 01:49:00,
2013-04-27 22:04:00,51.3,28.0,30.43,NW,310,0.0,1.0,41,0.00,,,0.00,weatherlink.com 1.10,2013-04-28 02:04:00,
2013-04-27 22:19:00,51.7,27.0,30.44,NW,310,0.0,0.0,39,0.00,,,0.00,weatherlink.com 1.10,2013-04-28 02:19:00,
2013-04-27 22:34:00,51.7,28.0,30.45,WSW,248,0.0,3.0,40,0.00,,,0.00,weatherlink.com 1.10,2013-04-28 02:34:00,
2013-04-27 22:49:00,51.3,32.0,30.45,South,190,1.0,4.0,48,0.00,,,0.00,weatherlink.com 1.10,2013-04-28 02:49:00,
2013-04-27 23:04:00,51.1,35.0,30.45,SW,218,0.0,4.0,54,0.00,,,0.00,weatherlink.com 1.10,2013-04-28 03:04:00,
2013-04-27 23:19:00,50.7,35.0,30.45,SSW,194,0.0,4.0,56,0.00,,,0.00,weatherlink.com 1.10,2013-04-28 03:19:00,
2013-04-27 23:34:00,50.4,36.0,30.45,SSW,198,0.0,3.0,58,0.00,,,0.00,weatherlink.com 1.10,2013-04-28 03:34:00,
2013-04-27 23:49:00,49.9,36.0,30.45,SW,220,0.0,2.0,59,0.00,,,0.00,weatherlink.com 1.10,2013-04-28 03:49:00,